Time;durP1;ratioP1;P1;durP2;ratioP2;P2;SDS_P1;SDS_P2;PMS_P1;PMS_P2;Temp;Humidity;BMP_temperature;BMP_pressure;BME280_temperature;BME280_humidity;BME280_pressure;Samples;Min_cycle;Max_cycle;Signal;HPM_P1;HPM_P2
2022/11/21 00:00:10;;;;;;;;;;;;;;;17.66;62.72;97809.72;4959484;28;19925;-79
2022/11/21 00:02:35;;;;;;;;;;;;;;;17.65;62.58;97791.44;4975744;28;19918;-78
2022/11/21 00:05:00;;;;;;;;;;;;;;;17.65;62.70;97799.34;5003764;28;20425;-77
2022/11/21 00:07:26;;;;;;;;;;;;;;;17.64;62.42;97797.72;5032403;28;20461;-78
2022/11/21 00:09:51;;;;;;;;;;;;;;;17.63;62.54;97794.28;5014451;28;20383;-78
2022/11/21 00:12:16;;;;;;;;;;;;;;;17.63;62.27;97796.06;5014455;28;20004;-78
2022/11/21 00:14:42;;;;;;;;;;;;;;;17.61;62.14;97783.06;5030837;28;20055;-79
2022/11/21 00:17:07;;;;;;;;;;;;;;;17.64;62.08;97774.78;5014162;28;19940;-79
2022/11/21 00:19:32;;;;;;;;;;;;;;;17.63;62.11;97767.03;5014072;28;19925;-79
2022/11/21 00:21:57;;;;;;;;;;;;;;;17.64;62.16;97766.84;5014510;28;19975;-79
2022/11/21 00:24:23;;;;;;;;;;;;;;;17.64;61.85;97776.59;5014125;28;19918;-78
2022/11/21 00:26:48;;;;;;;;;;;;;;;17.64;61.85;97764.22;5014422;28;19979;-79
2022/11/21 00:29:13;;;;;;;;;;;;;;;17.63;61.70;97757.31;4995763;28;20460;-79
2022/11/21 00:31:39;;;;;;;;;;;;;;;17.64;61.63;97766.03;5010874;28;19921;-79
2022/11/21 00:34:04;;;;;;;;;;;;;;;17.64;61.71;97773.97;5012378;28;19918;-79
2022/11/21 00:36:29;;;;;;;;;;;;;;;17.64;61.54;97782.69;5010933;28;19917;-79
2022/11/21 00:38:54;;;;;;;;;;;;;;;17.64;61.38;97784.53;5012893;28;20300;-78
2022/11/21 00:41:20;;;;;;;;;;;;;;;17.64;61.39;97774.78;5011045;28;19918;-78
2022/11/21 00:43:45;;;;;;;;;;;;;;;17.63;61.32;97767.88;5010674;28;19929;-79
2022/11/21 00:46:10;;;;;;;;;;;;;;;17.64;61.30;97758.13;5011235;28;20071;-79
2022/11/21 00:48:36;;;;;;;;;;;;;;;17.64;61.33;97752.84;5011079;28;20285;-79
2022/11/21 00:51:01;;;;;;;;;;;;;;;17.65;61.26;97741.31;5013951;28;20751;-78
2022/11/21 00:53:27;;;;;;;;;;;;;;;17.65;61.19;97738.66;5015761;28;20428;-79
2022/11/21 00:55:52;;;;;;;;;;;;;;;17.65;61.04;97731.56;5013973;28;20029;-79
2022/11/21 00:58:17;;;;;;;;;;;;;;;17.66;60.83;97719.16;4998318;28;19918;-79
2022/11/21 01:00:42;;;;;;;;;;;;;;;17.66;60.79;97713.88;4981732;28;20309;-79
2022/11/21 01:03:08;;;;;;;;;;;;;;;17.66;60.82;97698.06;4998195;28;19918;-79
2022/11/21 01:05:33;;;;;;;;;;;;;;;17.66;60.71;97683.06;4997815;28;19917;-79
2022/11/21 01:07:58;;;;;;;;;;;;;;;17.67;60.57;97673.31;4981728;28;19918;-78
2022/11/21 01:10:24;;;;;;;;;;;;;;;17.68;60.61;97670.47;4997475;28;19971;-78
2022/11/21 01:12:49;;;;;;;;;;;;;;;17.68;60.62;97690.78;4998057;28;19924;-78
2022/11/21 01:15:14;;;;;;;;;;;;;;;17.69;60.53;97702.97;4997471;28;20281;-78
2022/11/21 01:17:40;;;;;;;;;;;;;;;17.70;60.56;97715.97;4981472;28;20001;-78
2022/11/21 01:20:06;;;;;;;;;;;;;;;17.69;60.41;97706.41;4997519;28;19976;-78
2022/11/21 01:22:31;;;;;;;;;;;;;;;17.69;60.58;97706.41;4997377;28;19917;-77
2022/11/21 01:24:56;;;;;;;;;;;;;;;17.71;60.36;97701.78;4997639;28;19924;-78
2022/11/21 01:27:22;;;;;;;;;;;;;;;17.71;60.43;97690.38;5014993;28;19925;-78
2022/11/21 01:29:47;;;;;;;;;;;;;;;17.70;60.35;97694.84;4998167;28;19918;-80
2022/11/21 01:32:12;;;;;;;;;;;;;;;17.70;60.32;97688.78;4980959;28;19944;-78
2022/11/21 01:34:38;;;;;;;;;;;;;;;17.70;60.20;97692.22;5015062;28;20360;-78
2022/11/21 01:37:03;;;;;;;;;;;;;;;17.70;60.33;97679.03;4997401;28;19960;-79
2022/11/21 01:39:28;;;;;;;;;;;;;;;17.70;60.36;97665.81;4997295;28;19968;-79
2022/11/21 01:41:53;;;;;;;;;;;;;;;17.69;60.37;97669.47;4981001;28;19924;-79
2022/11/21 01:44:19;;;;;;;;;;;;;;;17.70;60.36;97657.09;4997164;28;19953;-79
2022/11/21 01:46:44;;;;;;;;;;;;;;;17.69;60.21;97648.34;5014855;28;20266;-78
2022/11/21 01:49:11;;;;;;;;;;;;;;;17.69;60.27;97647.53;4980643;28;19944;-79
2022/11/21 01:51:48;;;;;;;;;;;;;;;17.68;60.33;97657.28;4997263;28;20004;-79
2022/11/21 01:54:23;;;;;;;;;;;;;;;17.68;60.37;97636.19;4997030;28;19967;-78
2022/11/21 01:56:50;;;;;;;;;;;;;;;17.68;60.20;97648.56;4996794;28;19917;-77
2022/11/21 01:59:26;;;;;;;;;;;;;;;17.68;60.38;97620.34;4996872;28;19921;-77
2022/11/21 02:01:51;;;;;;;;;;;;;;;17.68;60.38;97628.25;4979525;28;20312;-78
2022/11/21 02:04:17;;;;;;;;;;;;;;;17.67;60.39;97600.22;4996781;28;19917;-78
2022/11/21 02:06:42;;;;;;;;;;;;;;;17.66;60.36;97592.50;4996892;28;19918;-78
2022/11/21 02:09:07;;;;;;;;;;;;;;;17.67;60.31;97587.03;5013961;28;20437;-78
2022/11/21 02:11:39;;;;;;;;;;;;;;;17.65;60.46;97578.50;4996284;28;19932;-78
2022/11/21 02:14:05;;;;;;;;;;;;;;;17.64;60.50;97565.50;5013086;28;19924;-78
2022/11/21 02:16:30;;;;;;;;;;;;;;;17.65;60.39;97557.38;5019584;28;19929;-82
2022/11/21 02:18:55;;;;;;;;;;;;;;;17.65;60.44;97559.22;4981486;28;19929;-79
2022/11/21 02:21:23;;;;;;;;;;;;;;;17.66;60.47;97613.59;5014115;28;19924;-79
2022/11/21 02:23:52;;;;;;;;;;;;;;;17.66;60.57;97621.53;5014141;28;20311;-78
2022/11/21 02:26:17;;;;;;;;;;;;;;;17.66;60.55;97629.44;4996659;28;19929;-79
2022/11/21 02:28:43;;;;;;;;;;;;;;;17.64;61.08;97631.47;4996689;28;19984;-79
2022/11/21 02:31:08;;;;;;;;;;;;;;;17.63;61.36;97650.94;5013040;28;20368;-78
2022/11/21 02:33:34;;;;;;;;;;;;;;;17.60;61.88;97623.13;4996793;28;20024;-78
2022/11/21 02:35:59;;;;;;;;;;;;;;;17.60;62.12;97627.56;5012379;28;19918;-78
2022/11/21 02:38:34;;;;;;;;;;;;;;;17.56;62.30;97615.75;4996506;28;19918;-79
2022/11/21 02:41:01;;;;;;;;;;;;;;;17.54;62.59;97626.50;4996469;28;19922;-78
2022/11/21 02:43:30;;;;;;;;;;;;;;;17.53;62.67;97616.94;4996338;28;19926;-78
2022/11/21 02:45:55;;;;;;;;;;;;;;;17.50;62.94;97598.84;4996478;28;20008;-79
2022/11/21 02:48:21;;;;;;;;;;;;;;;17.48;62.95;97611.44;4996251;28;19925;-78
2022/11/21 02:50:46;;;;;;;;;;;;;;;17.47;63.33;97613.25;5013871;28;20372;-79
2022/11/21 02:53:12;;;;;;;;;;;;;;;17.45;63.27;97595.97;4996226;28;19925;-79
2022/11/21 02:55:38;;;;;;;;;;;;;;;17.43;63.37;97598.81;4995415;28;19917;-79
2022/11/21 02:58:03;;;;;;;;;;;;;;;17.43;63.33;97592.72;5012055;28;19918;-78
2022/11/21 03:00:28;;;;;;;;;;;;;;;17.41;63.42;97585.00;5011812;28;19972;-78
2022/11/21 03:02:54;;;;;;;;;;;;;;;17.40;63.66;97582.53;4995897;28;19952;-79
2022/11/21 03:05:20;;;;;;;;;;;;;;;17.40;63.65;97566.72;4979546;28;20022;-79
2022/11/21 03:07:45;;;;;;;;;;;;;;;17.37;63.59;97575.81;4995603;28;19956;-78
2022/11/21 03:10:10;;;;;;;;;;;;;;;17.36;63.58;97566.25;4995704;28;19918;-78
2022/11/21 03:12:39;;;;;;;;;;;;;;;17.36;63.78;97560.97;4978078;28;19957;-79
2022/11/21 03:15:05;;;;;;;;;;;;;;;17.34;63.78;97568.28;4995405;28;19968;-78
2022/11/21 03:17:30;;;;;;;;;;;;;;;17.33;64.00;97569.28;4995403;28;19976;-78
2022/11/21 03:19:56;;;;;;;;;;;;;;;17.32;64.09;97565.03;4995417;28;20292;-78
2022/11/21 03:22:21;;;;;;;;;;;;;;;17.31;64.11;97558.09;5013116;28;19924;-78
2022/11/21 03:24:46;;;;;;;;;;;;;;;17.28;64.02;97561.91;4995219;28;19917;-80
2022/11/21 03:27:11;;;;;;;;;;;;;;;17.27;64.21;97556.88;5011785;28;20400;-78
2022/11/21 03:29:37;;;;;;;;;;;;;;;17.24;63.97;97538.78;4995445;28;19917;-78
2022/11/21 03:32:02;;;;;;;;;;;;;;;17.21;64.11;97525.97;4995726;28;19922;-78
2022/11/21 03:34:27;;;;;;;;;;;;;;;17.17;64.35;97523.72;4994930;28;19957;-78
2022/11/21 03:36:53;;;;;;;;;;;;;;;17.13;64.17;97511.91;4995663;28;19921;-78
2022/11/21 03:39:18;;;;;;;;;;;;;;;17.10;64.18;97517.53;5012742;28;20420;-79
2022/11/21 03:41:43;;;;;;;;;;;;;;;17.08;64.49;97537.19;4991667;28;19940;-78
2022/11/21 03:44:09;;;;;;;;;;;;;;;17.04;64.38;97549.13;4976035;28;19969;-79
2022/11/21 03:46:35;;;;;;;;;;;;;;;16.98;64.52;97540.97;4959615;28;19922;-80
2022/11/21 03:49:01;;;;;;;;;;;;;;;16.97;64.63;97530.63;4975817;28;20400;-77
2022/11/21 03:51:26;;;;;;;;;;;;;;;16.95;64.38;97533.44;4975540;28;19917;-77
2022/11/21 03:53:51;;;;;;;;;;;;;;;16.94;64.54;97541.53;4975551;28;19918;-76
2022/11/21 03:56:17;;;;;;;;;;;;;;;16.89;64.44;97522.78;4958817;28;20397;-78
2022/11/21 03:58:42;;;;;;;;;;;;;;;16.88;64.29;97534.38;4975852;28;19929;-78
2022/11/21 04:01:07;;;;;;;;;;;;;;;16.83;64.63;97527.78;4975546;28;19924;-78
2022/11/21 04:03:33;;;;;;;;;;;;;;;16.80;64.46;97522.88;4993125;28;19922;-77
2022/11/21 04:05:58;;;;;;;;;;;;;;;16.75;64.70;97527.91;4975142;28;20333;-77
2022/11/21 04:08:23;;;;;;;;;;;;;;;16.71;64.42;97510.81;4975541;28;19918;-79
2022/11/21 04:10:49;;;;;;;;;;;;;;;16.68;64.56;97497.22;4958939;28;19921;-78
2022/11/21 04:13:14;;;;;;;;;;;;;;;16.65;64.46;97495.75;4975767;28;19918;-78
2022/11/21 04:15:40;;;;;;;;;;;;;;;16.61;64.43;97481.34;4975630;28;19922;-78
2022/11/21 04:18:05;;;;;;;;;;;;;;;16.58;64.33;97484.34;4975677;28;19917;-79
2022/11/21 04:20:30;;;;;;;;;;;;;;;16.55;64.46;97490.00;4975361;28;19924;-78
2022/11/21 04:22:56;;;;;;;;;;;;;;;16.50;64.31;97493.19;4975742;28;20004;-79
2022/11/21 04:25:21;;;;;;;;;;;;;;;16.46;64.47;97498.00;4977539;28;19925;-78
2022/11/21 04:27:46;;;;;;;;;;;;;;;16.43;64.47;97498.38;4996365;28;20384;-80
2022/11/21 04:30:12;;;;;;;;;;;;;;;16.40;64.15;97496.09;4970294;28;19921;-79
2022/11/21 04:32:37;;;;;;;;;;;;;;;16.38;64.00;97494.66;5016242;28;20345;-79
2022/11/21 04:35:02;;;;;;;;;;;;;;;16.34;64.02;97504.75;5015790;28;19921;-80
2022/11/21 04:37:28;;;;;;;;;;;;;;;16.31;63.96;97494.56;5015310;28;19983;-80
2022/11/21 04:39:53;;;;;;;;;;;;;;;16.26;63.83;97483.78;4997951;28;19928;-80
2022/11/21 04:42:18;;;;;;;;;;;;;;;16.24;63.86;97498.94;4997482;28;19964;-81
2022/11/21 04:44:43;;;;;;;;;;;;;;;16.20;63.65;97493.22;5015648;28;19927;-80
2022/11/21 04:47:09;;;;;;;;;;;;;;;16.16;63.58;97507.78;4998211;28;20075;-80
2022/11/21 04:49:34;;;;;;;;;;;;;;;16.14;63.63;97501.03;5014827;28;19968;-82
2022/11/21 04:51:59;;;;;;;;;;;;;;;16.17;66.70;97490.94;4997560;28;19967;-78
2022/11/21 04:54:25;;;;;;;;;;;;;;;16.25;66.46;97476.88;5015699;28;19921;-79
2022/11/21 04:56:50;;;;;;;;;;;;;;;16.24;65.38;97491.88;5014568;28;20286;-85
2022/11/21 04:59:15;;;;;;;;;;;;;;;16.21;64.96;97504.59;5014682;28;19917;-80
2022/11/21 05:01:41;;;;;;;;;;;;;;;16.17;64.77;97495.41;5015399;28;20019;-86
2022/11/21 05:04:06;;;;;;;;;;;;;;;16.13;64.44;97491.50;4998338;28;19917;-88
2022/11/21 05:06:31;;;;;;;;;;;;;;;16.10;64.16;97492.69;5004810;28;20373;-80
2022/11/21 05:08:56;;;;;;;;;;;;;;;16.05;63.95;97485.34;4996929;28;19918;-83
2022/11/21 05:14:06;;;;;;;;;;;;;;;16.01;63.71;97484.06;4995667;28;19925;-76
2022/11/21 05:16:31;;;;;;;;;;;;;;;15.98;63.67;97484.44;4995772;28;19918;-78
2022/11/21 05:18:57;;;;;;;;;;;;;;;15.96;63.58;97489.06;4995540;28;19922;-77
2022/11/21 05:21:22;;;;;;;;;;;;;;;15.95;63.33;97489.25;4978295;28;20019;-77
2022/11/21 05:23:47;;;;;;;;;;;;;;;15.92;63.63;97477.25;4978392;28;19918;-77
2022/11/21 05:26:13;;;;;;;;;;;;;;;15.91;63.45;97473.00;4995605;28;20308;-78
2022/11/21 05:28:38;;;;;;;;;;;;;;;15.91;63.14;97475.66;4995617;28;19918;-77
2022/11/21 05:31:03;;;;;;;;;;;;;;;15.93;63.14;97481.53;4962022;28;20388;-77
2022/11/21 05:33:29;;;;;;;;;;;;;;;15.95;63.24;97482.16;4995615;28;19969;-77
2022/11/21 05:35:54;;;;;;;;;;;;;;;16.01;62.80;97486.69;4994132;28;20308;-77
2022/11/21 05:38:19;;;;;;;;;;;;;;;16.13;62.78;97484.44;4977984;28;19968;-78
2022/11/21 05:40:44;;;;;;;;;;;;;;;16.28;62.29;97490.47;4995698;28;19928;-77
2022/11/21 05:45:54;;;;;;;;;;;;;;;16.69;61.61;97481.22;5014984;28;19946;-78
2022/11/21 05:48:19;;;;;;;;;;;;;;;16.69;61.70;97475.94;4997244;28;20420;-80
2022/11/21 05:50:50;;;;;;;;;;;;;;;16.72;61.71;97477.41;5014633;28;19917;-79
2022/11/21 05:53:16;;;;;;;;;;;;;;;17.08;61.02;97480.00;5014800;28;19967;-79
2022/11/21 05:55:41;;;;;;;;;;;;;;;17.50;59.92;97477.50;4996962;28;19917;-79
2022/11/21 05:58:07;;;;;;;;;;;;;;;17.90;59.03;97467.25;4996773;28;19918;-78
2022/11/21 06:00:33;;;;;;;;;;;;;;;18.36;58.23;97481.66;5014732;28;19924;-79
2022/11/21 06:05:42;;;;;;;;;;;;;;;19.44;55.89;97484.31;5014689;28;20299;-79
2022/11/21 06:08:07;;;;;;;;;;;;;;;20.12;54.40;97493.00;4996677;28;19918;-80
2022/11/21 06:10:32;;;;;;;;;;;;;;;20.90;51.69;97492.03;5013238;28;19925;-80
2022/11/21 06:12:58;;;;;;;;;;;;;;;21.68;49.76;97498.81;5014617;28;20395;-78
2022/11/21 06:15:24;;;;;;;;;;;;;;;22.58;47.39;97490.28;5014451;28;19922;-78
2022/11/21 06:17:49;;;;;;;;;;;;;;;23.46;45.68;97503.94;5008152;28;19960;-79
2022/11/21 06:20:15;;;;;;;;;;;;;;;24.31;43.61;97504.50;4977798;28;19957;-80
2022/11/21 06:22:41;;;;;;;;;;;;;;;25.15;41.86;97502.34;4977573;28;20012;-80
2022/11/21 06:25:06;;;;;;;;;;;;;;;25.84;40.58;97496.75;4978187;28;20012;-79
2022/11/21 06:27:31;;;;;;;;;;;;;;;26.42;39.48;97494.56;4977469;28;20403;-80
2022/11/21 06:29:57;;;;;;;;;;;;;;;26.89;38.77;97494.03;4977170;28;19917;-79
2022/11/21 06:32:22;;;;;;;;;;;;;;;27.23;37.97;97499.16;4995022;28;19918;-80
2022/11/21 06:34:47;;;;;;;;;;;;;;;27.43;37.76;97498.53;4994917;28;19984;-79
2022/11/21 06:37:13;;;;;;;;;;;;;;;27.46;37.86;97499.91;4977726;28;19929;-79
2022/11/21 06:39:38;;;;;;;;;;;;;;;27.43;37.76;97503.88;4994223;28;20376;-79
2022/11/21 06:42:03;;;;;;;;;;;;;;;27.46;37.97;97507.13;4977494;28;19925;-79
2022/11/21 06:44:29;;;;;;;;;;;;;;;27.48;38.14;97497.75;4960768;28;19929;-80
2022/11/21 06:46:54;;;;;;;;;;;;;;;27.59;38.13;97507.47;4976557;28;19918;-81
2022/11/21 06:49:21;;;;;;;;;;;;;;;27.75;37.88;97502.22;4976557;28;19925;-81
2022/11/21 06:51:46;;;;;;;;;;;;;;;27.94;37.49;97506.16;4966993;28;19922;-80
2022/11/21 06:54:11;;;;;;;;;;;;;;;28.11;37.26;97502.47;5003394;28;19921;-80
2022/11/21 06:56:36;;;;;;;;;;;;;;;28.26;37.21;97499.03;4993637;28;19921;-80
2022/11/21 06:59:02;;;;;;;;;;;;;;;28.42;36.67;97499.94;4989593;28;20293;-80
2022/11/21 07:01:27;;;;;;;;;;;;;;;28.55;36.58;97499.41;4992743;28;19918;-79
2022/11/21 07:03:53;;;;;;;;;;;;;;;28.66;36.06;97505.66;4982945;28;20012;-82
2022/11/21 07:06:19;;;;;;;;;;;;;;;28.80;35.33;97511.34;5016388;28;19925;-79
2022/11/21 07:08:44;;;;;;;;;;;;;;;28.75;36.16;97512.13;5020681;28;19925;-79
2022/11/21 07:11:10;;;;;;;;;;;;;;;28.92;35.88;97508.41;4994971;28;19921;-77
2022/11/21 07:13:35;;;;;;;;;;;;;;;29.16;35.09;97501.44;4995765;28;19918;-77
2022/11/21 07:16:02;;;;;;;;;;;;;;;29.40;34.85;97498.25;4995455;28;20071;-77
2022/11/21 07:18:27;;;;;;;;;;;;;;;29.67;33.67;97489.88;4996164;28;19967;-77
2022/11/21 07:20:56;;;;;;;;;;;;;;;29.89;33.48;97494.19;4995917;28;19989;-77
2022/11/21 07:23:21;;;;;;;;;;;;;;;30.05;33.53;97495.75;5014118;28;19941;-81
2022/11/21 07:25:48;;;;;;;;;;;;;;;30.26;33.32;97484.91;4996602;28;19918;-86
2022/11/21 07:28:13;;;;;;;;;;;;;;;30.41;33.15;97492.13;4996928;28;20455;-86
2022/11/21 07:30:38;;;;;;;;;;;;;;;30.52;32.27;97500.97;4992714;28;19922;-84
2022/11/21 07:33:04;;;;;;;;;;;;;;;30.68;31.87;97502.50;4960230;28;20269;-83
2022/11/21 07:35:30;;;;;;;;;;;;;;;30.85;31.52;97511.00;4960156;28;19917;-87
2022/11/21 07:37:55;;;;;;;;;;;;;;;31.02;31.62;97505.25;4994350;28;20368;-84
2022/11/21 07:40:20;;;;;;;;;;;;;;;31.20;30.46;97497.56;4960642;28;19918;-87
2022/11/21 07:42:46;;;;;;;;;;;;;;;31.39;30.35;97500.38;4960659;28;20048;-84
2022/11/21 07:45:12;;;;;;;;;;;;;;;31.50;30.16;97510.03;4959943;28;20395;-78
2022/11/21 07:47:37;;;;;;;;;;;;;;;31.63;29.90;97511.28;4993392;28;19921;-83
2022/11/21 07:50:04;;;;;;;;;;;;;;;31.78;28.99;97514.91;4979936;28;19921;-85
2022/11/21 07:52:30;;;;;;;;;;;;;;;31.82;28.19;97518.63;4998405;28;19922;-87
2022/11/21 07:54:56;;;;;;;;;;;;;;;31.46;28.29;97510.88;5014522;28;19917;-85
2022/11/21 07:57:23;;;;;;;;;;;;;;;30.88;28.17;97517.72;5012764;28;20387;-87
2022/11/21 07:59:49;;;;;;;;;;;;;;;31.20;27.66;97514.56;4997587;28;19921;-85
2022/11/21 08:02:18;;;;;;;;;;;;;;;31.41;27.67;97510.88;5000857;28;19940;-86
2022/11/21 08:04:43;;;;;;;;;;;;;;;31.64;27.23;97514.78;5000512;28;19928;-85
2022/11/21 08:07:09;;;;;;;;;;;;;;;31.78;26.98;97510.31;5001030;28;19921;-87
2022/11/21 08:09:34;;;;;;;;;;;;;;;31.92;26.63;97511.25;5002115;28;19917;-85
2022/11/21 08:11:59;;;;;;;;;;;;;;;32.17;26.04;97511.28;5017520;28;19921;-87
2022/11/21 08:14:25;;;;;;;;;;;;;;;32.30;25.28;97510.59;5019239;28;19924;-86
2022/11/21 08:16:51;;;;;;;;;;;;;;;32.07;25.43;97515.69;5000572;28;19917;-88
2022/11/21 08:19:17;;;;;;;;;;;;;;;31.51;25.81;97508.91;5000502;28;19967;-84
2022/11/21 08:21:42;;;;;;;;;;;;;;;31.35;26.36;97513.63;5000607;28;19917;-85
2022/11/21 08:24:12;;;;;;;;;;;;;;;31.16;26.62;97510.81;4999340;28;20008;-83
2022/11/21 08:26:37;;;;;;;;;;;;;;;31.11;27.26;97515.47;5000334;28;20060;-86
2022/11/21 08:29:03;;;;;;;;;;;;;;;30.81;27.58;97512.66;5001177;28;20427;-86
2022/11/21 08:31:28;;;;;;;;;;;;;;;30.46;27.83;97509.06;5016195;28;19917;-85
2022/11/21 08:33:56;;;;;;;;;;;;;;;30.31;28.12;97519.84;4999873;28;19921;-86
2022/11/21 08:36:22;;;;;;;;;;;;;;;30.15;28.04;97518.31;5000094;28;20377;-87
2022/11/21 08:38:47;;;;;;;;;;;;;;;29.84;28.44;97519.22;4999555;28;19924;-86
2022/11/21 08:43:56;;;;;;;;;;;;;;;30.45;27.58;97525.50;5024338;28;20017;-90
2022/11/21 08:46:26;;;;;;;;;;;;;;;30.38;27.79;97525.81;5018177;28;19957;-85
2022/11/21 08:48:51;;;;;;;;;;;;;;;30.48;28.25;97524.94;5016660;28;19925;-85
2022/11/21 08:51:17;;;;;;;;;;;;;;;30.97;26.70;97528.75;4999729;28;19917;-82
2022/11/21 08:53:42;;;;;;;;;;;;;;;31.44;26.73;97523.81;5016787;28;19918;-85
2022/11/21 08:56:07;;;;;;;;;;;;;;;31.87;25.83;97521.31;4999565;28;20415;-84
2022/11/21 08:58:33;;;;;;;;;;;;;;;32.44;23.51;97522.28;5015536;28;19925;-83
2022/11/21 09:00:58;;;;;;;;;;;;;;;33.28;22.88;97518.19;4998689;28;19998;-85
2022/11/21 09:03:24;;;;;;;;;;;;;;;34.11;21.44;97527.56;4998805;28;20446;-87
2022/11/21 09:05:49;;;;;;;;;;;;;;;34.93;20.56;97517.78;5016443;28;19924;-86
2022/11/21 09:08:14;;;;;;;;;;;;;;;35.67;19.89;97514.63;5014774;28;19917;-83
2022/11/21 09:10:39;;;;;;;;;;;;;;;36.04;19.52;97517.22;5014785;28;20447;-84
2022/11/21 09:13:05;;;;;;;;;;;;;;;36.17;19.46;97520.97;5015061;28;19956;-86
2022/11/21 09:18:14;;;;;;;;;;;;;;;35.98;18.58;97515.78;5016045;28;20304;-82
2022/11/21 09:20:40;;;;;;;;;;;;;;;35.88;17.89;97511.41;5014746;28;19918;-83
2022/11/21 09:23:09;;;;;;;;;;;;;;;35.97;18.01;97511.44;5014867;28;19918;-83
2022/11/21 09:25:35;;;;;;;;;;;;;;;36.66;16.98;97510.03;4998224;28;19918;-85
2022/11/21 09:28:00;;;;;;;;;;;;;;;37.90;15.57;97499.53;5015765;28;19923;-83
2022/11/21 09:30:26;;;;;;;;;;;;;;;39.38;14.49;97505.94;5014622;28;19948;-82
2022/11/21 09:32:51;;;;;;;;;;;;;;;40.55;13.40;97497.63;5015271;28;20277;-81
2022/11/21 09:35:17;;;;;;;;;;;;;;;41.45;12.59;97500.16;5014397;28;19918;-83
2022/11/21 09:37:42;;;;;;;;;;;;;;;42.35;12.02;97497.69;5014204;28;19917;-82
2022/11/21 09:40:11;;;;;;;;;;;;;;;42.57;11.40;97496.25;5013840;28;20304;-83
2022/11/21 09:42:40;;;;;;;;;;;;;;;42.52;10.91;97490.22;5013816;28;19921;-81
2022/11/21 09:45:37;;;;;;;;;;;;;;;42.29;10.45;97480.75;4997426;28;19929;-82
2022/11/21 09:48:07;;;;;;;;;;;;;;;41.73;10.99;97494.66;4954313;29;19918;-83
2022/11/21 09:50:35;;;;;;;;;;;;;;;39.49;12.37;97492.66;4938975;29;20057;-85
2022/11/21 09:53:12;;;;;;;;;;;;;;;38.95;13.16;97489.94;4922709;29;19968;-85
2022/11/21 09:55:40;;;;;;;;;;;;;;;38.48;13.02;97497.16;4958753;28;19922;-84
2022/11/21 09:58:10;;;;;;;;;;;;;;;36.87;14.34;97500.19;4957762;28;19978;-85
2022/11/21 10:00:35;;;;;;;;;;;;;;;35.79;15.11;97495.09;4958161;28;20274;-83
2022/11/21 10:03:00;;;;;;;;;;;;;;;35.02;16.04;97502.38;4957348;28;19918;-85
2022/11/21 10:05:32;;;;;;;;;;;;;;;34.06;17.45;97499.50;4941240;28;19918;-85
2022/11/21 10:07:57;;;;;;;;;;;;;;;33.08;18.15;97494.13;4941401;28;20400;-84
2022/11/21 10:10:29;;;;;;;;;;;;;;;32.30;19.12;97486.28;4960873;28;19922;-86
2022/11/21 10:12:54;;;;;;;;;;;;;;;31.64;19.94;97502.09;4961852;28;19954;-89
2022/11/21 10:15:29;;;;;;;;;;;;;;;31.43;20.60;97487.97;4961762;28;19914;-88
2022/11/21 10:17:57;;;;;;;;;;;;;;;31.24;20.60;97484.38;4959907;28;19948;-79
2022/11/21 10:20:26;;;;;;;;;;;;;;;31.16;21.02;97488.47;4957155;28;20016;-80
2022/11/21 10:22:57;;;;;;;;;;;;;;;31.01;21.52;97490.19;4960773;28;19924;-82
2022/11/21 10:25:23;;;;;;;;;;;;;;;30.89;21.32;97494.28;4993793;28;19917;-83
2022/11/21 10:27:48;;;;;;;;;;;;;;;30.84;21.13;97490.53;4993767;28;19918;-82
2022/11/21 10:30:15;;;;;;;;;;;;;;;30.96;21.54;97486.69;4993113;28;20009;-83
2022/11/21 10:32:42;;;;;;;;;;;;;;;31.17;21.30;97479.31;4993820;28;19922;-82
2022/11/21 10:35:18;;;;;;;;;;;;;;;31.30;21.40;97485.94;4994399;28;19917;-83
2022/11/21 10:37:52;;;;;;;;;;;;;;;31.21;21.29;97488.41;4993900;28;19964;-82
2022/11/21 10:40:36;;;;;;;;;;;;;;;31.23;20.93;97493.53;4994934;28;19922;-84
2022/11/21 10:46:07;;;;;;;;;;;;;;;30.93;21.26;97501.53;4945600;29;19926;-86
2022/11/21 10:48:32;;;;;;;;;;;;;;;30.57;21.00;97496.38;4923340;29;19925;-85
2022/11/21 10:51:04;;;;;;;;;;;;;;;30.45;21.15;97499.38;4922512;29;20469;-85
2022/11/21 10:56:14;;;;;;;;;;;;;;;30.18;21.04;97478.19;4940323;29;19984;-86
2022/11/21 10:58:42;;;;;;;;;;;;;;;29.68;20.67;97478.06;4922323;29;20400;-85
2022/11/21 11:01:33;;;;;;;;;;;;;;;29.27;21.41;97475.41;4922584;29;19919;-86
2022/11/21 11:04:12;;;;;;;;;;;;;;;29.10;21.23;97470.28;4935109;29;20333;-85
2022/11/21 11:06:38;;;;;;;;;;;;;;;29.15;21.16;97472.16;4937899;29;19927;-85
2022/11/21 11:09:03;;;;;;;;;;;;;;;29.10;21.67;97466.75;4922697;29;20027;-87
2022/11/21 11:11:29;;;;;;;;;;;;;;;29.03;21.57;97469.72;4922640;29;19927;-84
2022/11/21 11:14:01;;;;;;;;;;;;;;;28.75;21.83;97469.16;4923783;29;19953;-88
2022/11/21 11:16:27;;;;;;;;;;;;;;;28.45;22.43;97475.22;4922843;29;19922;-86
2022/11/21 11:18:54;;;;;;;;;;;;;;;28.20;22.80;97475.97;4922923;28;19978;-86
2022/11/21 11:21:20;;;;;;;;;;;;;;;28.04;23.16;97477.75;4977955;28;19917;-86
2022/11/21 11:23:46;;;;;;;;;;;;;;;27.93;23.23;97475.00;4978046;28;20404;-87
2022/11/21 11:26:21;;;;;;;;;;;;;;;27.66;23.93;97475.13;4977864;28;20377;-87
2022/11/21 11:28:46;;;;;;;;;;;;;;;27.44;24.64;97478.72;4993544;28;20491;-85
2022/11/21 11:31:12;;;;;;;;;;;;;;;27.35;24.65;97476.78;4978000;28;19929;-86
2022/11/21 11:33:37;;;;;;;;;;;;;;;27.12;25.08;97476.03;4977237;28;19917;-86
2022/11/21 11:36:10;;;;;;;;;;;;;;;26.95;25.31;97481.50;4993960;28;19918;-86
2022/11/21 11:38:35;;;;;;;;;;;;;;;26.84;25.47;97487.81;4994528;28;20029;-85
2022/11/21 11:41:02;;;;;;;;;;;;;;;26.62;25.91;97488.63;4977814;28;20369;-87
2022/11/21 11:52:21;;;;;;;;;;;;;;;26.08;25.75;97491.22;4995807;28;19925;-88
2022/11/21 11:54:47;;;;;;;;;;;;;;;25.97;26.50;97491.06;4978516;28;19918;-88
2022/11/21 11:57:12;;;;;;;;;;;;;;;25.86;26.26;97491.16;4978184;28;20057;-87
2022/11/21 11:59:39;;;;;;;;;;;;;;;25.73;26.57;97485.09;4977266;28;19977;-86
2022/11/21 12:02:24;;;;;;;;;;;;;;;25.66;26.58;97481.00;4969570;28;19943;-86
2022/11/21 12:04:51;;;;;;;;;;;;;;;25.57;26.70;97480.56;4962049;28;19969;-86
2022/11/21 12:07:18;;;;;;;;;;;;;;;25.41;27.00;97476.88;4979271;28;19922;-85
2022/11/21 12:09:46;;;;;;;;;;;;;;;25.38;27.49;97469.34;4961799;28;20016;-86
2022/11/21 12:12:14;;;;;;;;;;;;;;;25.38;27.75;97472.00;4977426;28;19969;-86
2022/11/21 12:17:34;;;;;;;;;;;;;;;25.30;28.32;97470.56;4981187;28;19929;-86
2022/11/21 12:19:59;;;;;;;;;;;;;;;25.21;28.29;97475.47;4962379;28;19918;-85
2022/11/21 12:22:24;;;;;;;;;;;;;;;25.14;28.65;97471.34;4962001;28;19918;-87
2022/11/21 12:24:50;;;;;;;;;;;;;;;25.00;28.80;97476.16;4961775;28;19918;-87
2022/11/21 12:27:30;;;;;;;;;;;;;;;24.90;29.12;97474.16;4978135;28;19965;-86
2022/11/21 12:29:58;;;;;;;;;;;;;;;24.81;29.16;97471.06;4977362;28;19956;-86
2022/11/21 12:32:30;;;;;;;;;;;;;;;24.68;29.58;97477.50;4977499;28;19924;-85
2022/11/21 12:35:05;;;;;;;;;;;;;;;24.64;29.82;97473.69;4994312;28;19918;-87
2022/11/21 12:37:50;;;;;;;;;;;;;;;24.54;29.96;97471.63;4978842;28;19922;-87
2022/11/21 12:40:28;;;;;;;;;;;;;;;24.43;30.05;97472.47;4975919;28;19925;-86
2022/11/21 12:42:57;;;;;;;;;;;;;;;24.38;30.19;97483.03;4977427;28;19926;-87
2022/11/21 12:45:28;;;;;;;;;;;;;;;24.27;30.33;97476.66;4963954;28;19922;-89
2022/11/21 12:56:50;;;;;;;;;;;;;;;23.82;31.35;97487.97;4983871;28;19964;-87
2022/11/21 12:59:15;;;;;;;;;;;;;;;23.75;31.75;97484.63;4968833;28;19944;-86
2022/11/21 13:01:44;;;;;;;;;;;;;;;23.69;31.92;97491.69;5000006;28;20012;-87
2022/11/21 13:04:19;;;;;;;;;;;;;;;23.60;32.20;97487.75;5016815;28;20493;-86
2022/11/21 13:06:44;;;;;;;;;;;;;;;23.54;32.32;97494.81;5016487;28;19953;-86
2022/11/21 13:09:16;;;;;;;;;;;;;;;23.47;32.57;97489.59;5001014;28;19972;-86
2022/11/21 13:11:57;;;;;;;;;;;;;;;23.41;32.74;97495.84;4999464;28;19921;-86
2022/11/21 13:14:42;;;;;;;;;;;;;;;23.36;32.86;97495.72;5020174;28;19968;-88
2022/11/21 13:17:22;;;;;;;;;;;;;;;23.27;33.11;97489.91;5001210;28;20300;-88
2022/11/21 13:19:55;;;;;;;;;;;;;;;23.20;33.29;97489.22;5000080;28;19922;-85
2022/11/21 13:22:35;;;;;;;;;;;;;;;23.14;33.46;97492.78;5001311;28;20316;-86
2022/11/21 13:25:21;;;;;;;;;;;;;;;23.06;33.43;97488.56;5000276;28;19940;-86